MST,Max TemperatureF,Mean TemperatureF,Min TemperatureF,Max Dew PointF,MeanDew PointF,Min DewpointF,Max Humidity, Mean Humidity, Min Humidity, Max Sea Level PressureIn, Mean Sea Level PressureIn, Min Sea Level PressureIn, Max VisibilityMiles, Mean VisibilityMiles, Min VisibilityMiles, Max Wind SpeedMPH, Mean Wind SpeedMPH, Max Gust SpeedMPH,PrecipitationIn, CloudCover, Events, WindDirDegrees
2012-11-1,57,38,21,20,14,4,75,42,12,30.13,30.05,29.97,10,10,10,14,6,,0.00,0,,218
2012-11-2,57,40,24,16,12,4,63,41,12,30.11,30.03,29.96,10,10,10,9,4,,0.00,0,,252
2012-11-3,57,39,21,20,15,9,75,45,15,30.25,30.16,30.06,10,10,10,12,7,,0.00,0,,279
2012-11-4,62,40,19,23,19,13,78,48,21,30.39,30.28,30.22,10,10,10,10,7,,0.00,0,,314
2012-11-5,64,44,25,28,24,20,81,54,20,30.39,30.30,30.21,10,10,10,12,6,17,0.00,0,,295
2012-11-6,64,44,24,26,21,17,85,54,18,30.39,30.25,30.15,10,10,10,12,6,,0.00,0,,257
2012-11-7,63,43,23,23,18,13,81,49,18,30.26,30.09,29.96,10,10,10,15,5,,0.00,0,,218
2012-11-8,55,37,19,34,21,14,85,52,23,30.02,29.83,29.62,10,10,9,25,9,36,0.00,3,Rain,195
2012-11-9,44,34,21,39,31,16,93,85,65,29.83,29.62,29.44,10,6,0,28,16,40,0.38,7,Fog-Rain-Snow,202
2012-11-10,25,20,12,18,15,8,93,80,51,30.00,29.77,29.54,10,5,0,18,8,29,0.03,7,Fog-Snow,285
2012-11-11,24,14,3,13,7,0,92,77,60,30.53,30.18,29.94,10,9,2,18,9,24,0.00,4,Snow,297
2012-11-12,37,20,3,13,4,-2,84,60,20,30.61,30.47,30.36,10,10,10,10,6,,0.00,0,,227
2012-11-13,44,28,12,18,13,7,85,63,30,30.44,30.34,30.26,10,10,10,10,7,,0.00,0,,230
2012-11-14,46,30,14,18,13,9,85,61,23,30.39,30.27,30.18,10,10,10,10,5,,0.00,0,,221
2012-11-15,48,34,19,22,15,11,78,53,22,30.35,30.24,30.15,10,10,10,13,6,,0.00,0,,221
2012-11-16,44,34,24,30,23,16,92,67,38,30.17,30.12,30.07,10,10,10,15,4,,0.00,6,,169
2012-11-17,41,36,30,37,33,29,100,91,77,30.22,30.10,29.99,10,10,5,13,5,,0.05,7,Rain,158
2012-11-18,46,34,23,34,29,20,100,81,47,30.19,30.08,29.97,10,10,10,13,5,,0.00,6,,179
2012-11-19,48,34,19,32,24,17,92,76,36,30.35,30.26,30.15,10,10,10,15,4,20,0.00,1,,195
2012-11-20,50,34,19,29,23,18,96,71,33,30.35,30.23,30.14,10,10,10,18,6,25,0.00,0,,214
2012-11-21,53,36,19,23,19,16,92,63,25,30.24,30.11,30.02,10,10,10,15,6,,0.00,0,,204
2012-11-22,53,37,21,24,21,17,92,60,25,30.38,30.22,30.05,10,10,10,15,7,,0.00,0,,350
2012-11-23,53,36,19,23,16,13,89,64,20,30.50,30.40,30.32,10,10,10,10,5,,0.00,0,,246
2012-11-24,57,37,17,17,14,8,85,54,16,30.42,30.24,30.06,10,10,10,10,5,,0.00,0,,233
2012-11-25,55,35,15,18,12,5,88,49,14,30.14,30.01,29.90,10,10,10,13,5,,0.00,0,,271
2012-11-26,51,33,15,18,14,9,88,58,19,30.33,30.16,29.97,10,10,10,7,4,,0.00,0,,277
2012-11-27,51,32,12,18,13,9,88,62,22,30.44,30.31,30.23,10,10,10,15,3,,0.00,0,,212
2012-11-28,48,32,16,21,18,13,92,63,31,30.39,30.22,30.11,10,10,10,16,6,22,0.00,0,,188
2012-11-29,48,34,19,29,24,15,92,74,48,30.23,30.13,30.09,10,10,10,15,5,26,0.00,1,,225
2012-11-30,45,32,19,34,28,17,96,77,58,30.20,30.07,29.97,10,10,10,16,5,21,0.00,3,,208